Algoma, West Virginia
Current Conditions -  °F | °C
As of 2:52 PM on Monday 22 Dec 2014 (Local Time) from KBLF Reporting Station
Overcast Overcast  
Wind Chill: 34°   Ceiling: 600
Heat Index: 40°   Visibility: 10mi
Dew Point: 34°   Wind: 8mph
Humidity: 79%   Direction: 100°E
Pressure: 29.95"   Gusts: NA
Location:  37.3807°N, 81.4099°W
Report Text: KBLF 221952Z AUTO 10007KT 10SM OVC006 04/01 A2995 RMK AO2 SLP148 T00440011
Loading
Personal Weather Stations






























Interactive Weather Map New forecast layout! Learn more

10-Day Weather Forecast

Advertisements
Track Severe Weather on mobile